createdAt,value
2023-03-26T00:02:57.073Z,98871.59
2023-03-26T00:07:58.848Z,98873.34
2023-03-26T00:13:00.740Z,98874.06
2023-03-26T00:18:02.459Z,98885.16
2023-03-26T00:23:04.665Z,98899.22
2023-03-26T00:28:07.758Z,98898.13
2023-03-26T00:33:11.923Z,98914.72
2023-03-26T00:38:14.778Z,98904.06
2023-03-26T00:43:20.907Z,98904.91
2023-03-26T00:48:34.387Z,98907.56
2023-03-26T00:53:45.797Z,98900.06
2023-03-26T00:58:50.079Z,98885.84
2023-03-26T01:04:07.352Z,98880.31
2023-03-26T01:09:34.417Z,98882.94
2023-03-26T01:14:36.195Z,98870.72
2023-03-26T01:20:12.228Z,98874.59
2023-03-26T01:25:14.302Z,98868.91
2023-03-26T01:30:34.112Z,98876.66
2023-03-26T01:35:38.619Z,98890.44
2023-03-26T01:40:58.977Z,98883.78
2023-03-26T01:46:04.140Z,98894.97
2023-03-26T01:51:07.149Z,98884.63
2023-03-26T01:56:10.873Z,98889.66
2023-03-26T02:01:20.059Z,98879.38
2023-03-26T02:06:43.163Z,98874.31
2023-03-26T02:11:45.698Z,98884.69
2023-03-26T02:16:47.959Z,98864.28
2023-03-26T02:21:51.369Z,98874.78
2023-03-26T02:26:54.095Z,98880.75
2023-03-26T02:31:56.216Z,98881.56
2023-03-26T02:36:58.243Z,98882.44
2023-03-26T02:42:01.201Z,98879.84
2023-03-26T02:47:04.805Z,98888.97
2023-03-26T02:52:18.589Z,98885.03
2023-03-26T02:57:24.194Z,98885.88
2023-03-26T03:02:38.717Z,98887.03
2023-03-26T03:07:59.608Z,98881.28
2023-03-26T03:13:05.908Z,98883.06
2023-03-26T03:18:07.729Z,98875.25
2023-03-26T03:23:09.394Z,98880.16
2023-03-26T03:28:13.765Z,98880.78
2023-03-26T03:33:15.422Z,98881.75
2023-03-26T03:38:17.822Z,98874.19
2023-03-26T03:43:22.812Z,98876.25
2023-03-26T03:48:39.791Z,98877.19
2023-03-26T03:53:43.359Z,98878.81
2023-03-26T03:58:46.353Z,98869.25
2023-03-26T04:03:53.928Z,98856.47
2023-03-26T04:08:59.943Z,98860.03
2023-03-26T04:14:02.844Z,98872.22
2023-03-26T04:19:23.172Z,98860.78
2023-03-26T04:24:24.849Z,98863.72
2023-03-26T04:29:49.833Z,98853.72
2023-03-26T04:35:00.206Z,98852.59
2023-03-26T04:40:10.338Z,98860.31
2023-03-26T04:45:32.413Z,98865.09
2023-03-26T04:50:34.519Z,98855.88
2023-03-26T04:55:45.321Z,98851.41
2023-03-26T05:00:55.227Z,98848.63
2023-03-26T05:05:59.431Z,98856.84
2023-03-26T05:11:01.696Z,98853.19
2023-03-26T05:16:11.477Z,98853.31
2023-03-26T05:21:16.324Z,98853.44
2023-03-26T05:26:19.607Z,98858.09
2023-03-26T05:31:22.570Z,98862.06
2023-03-26T05:36:30.437Z,98866.06
2023-03-26T05:41:50.654Z,98861.09
2023-03-26T05:46:53.786Z,98867.03
2023-03-26T05:52:00.492Z,98868.16
2023-03-26T05:57:13.791Z,98874.25
2023-03-26T06:02:34.913Z,98876.59
2023-03-26T06:07:56.597Z,98872.44
2023-03-26T06:13:04.293Z,98873.03
2023-03-26T06:18:06.543Z,98866.84
2023-03-26T06:23:08.226Z,98864.22
2023-03-26T06:28:36.630Z,98856.84
2023-03-26T06:33:56.922Z,98864.78
2023-03-26T06:38:58.725Z,98857.13
2023-03-26T06:44:01.238Z,98857.78
2023-03-26T06:49:21.642Z,98851.50
2023-03-26T06:54:39.175Z,98855.88
2023-03-26T06:59:49.319Z,98864.94
2023-03-26T07:05:13.303Z,98861.31
2023-03-26T07:10:35.119Z,98862.63
2023-03-26T07:16:03.303Z,98863.81
2023-03-26T07:21:23.896Z,98864.19
2023-03-26T07:26:33.840Z,98858.69
2023-03-26T07:32:09.696Z,98856.84
2023-03-26T07:37:55.563Z,98854.56
2023-03-26T07:43:35.046Z,98860.97
2023-03-26T07:48:42.882Z,98852.13
2023-03-26T07:53:53.048Z,98849.69
2023-03-26T07:59:36.414Z,98845.88
2023-03-26T08:05:26.351Z,98850.78
2023-03-26T08:10:56.498Z,98849.84
2023-03-26T08:16:30.819Z,98838.63
2023-03-26T08:21:42.213Z,98839.44
2023-03-26T08:27:16.252Z,98855.81
2023-03-26T08:32:20.112Z,98843.31
2023-03-26T08:37:41.713Z,98841.34
2023-03-26T08:42:44.338Z,98839.22
2023-03-26T08:48:03.972Z,98837.53
2023-03-26T08:53:48.546Z,98837.03
2023-03-26T08:59:00.744Z,98830.72
2023-03-26T09:04:22.936Z,98827.81
2023-03-26T09:09:39.885Z,98817.41
2023-03-26T09:14:41.417Z,98817.66
2023-03-26T09:20:18.739Z,98816.09
2023-03-26T09:25:53.202Z,98813.47
2023-03-26T09:31:32.423Z,98801.44
2023-03-26T09:36:53.188Z,98794.53
2023-03-26T09:42:15.667Z,98784.84
2023-03-26T09:47:29.276Z,98783.94
2023-03-26T09:52:50.420Z,98784.03
2023-03-26T09:58:14.827Z,98772.34
2023-03-26T10:03:48.779Z,98776.91
2023-03-26T10:09:09.565Z,98776.53
2023-03-26T10:14:36.376Z,98769.22
2023-03-26T10:20:09.588Z,98746.97
2023-03-26T10:25:23.246Z,98744.25
2023-03-26T10:30:31.067Z,98736.72
2023-03-26T10:35:45.308Z,98731.84
2023-03-26T10:41:18.386Z,98707.88
2023-03-26T10:46:32.161Z,98701.72
2023-03-26T10:51:48.635Z,98690.69
2023-03-26T10:56:51.800Z,98685.53
2023-03-26T11:02:30.852Z,98671.97
2023-03-26T11:07:51.759Z,98665.13
2023-03-26T11:13:11.268Z,98665.91
2023-03-26T11:18:41.430Z,98661.19
2023-03-26T11:24:32.408Z,98656.22
2023-03-26T11:29:51.420Z,98650.13
2023-03-26T11:35:41.142Z,98652.09
2023-03-26T11:40:50.680Z,98640.22
2023-03-26T11:46:14.985Z,98631.72
2023-03-26T11:51:25.373Z,98621.69
2023-03-26T11:57:06.964Z,98618.53
2023-03-26T12:02:12.092Z,98619.91
2023-03-26T12:07:23.819Z,98626.53
2023-03-26T12:12:27.373Z,98625.75
2023-03-26T12:17:37.234Z,98612.34
2023-03-26T12:22:43.463Z,98617.69
2023-03-26T12:28:02.363Z,98604.25
2023-03-26T12:33:18.183Z,98605.00
2023-03-26T12:38:24.506Z,98591.91
2023-03-26T12:44:55.920Z,98594.59
2023-03-26T12:48:55.106Z,98603.38
2023-03-26T12:54:23.890Z,98596.00
2023-03-26T12:59:28.626Z,98597.25
2023-03-26T13:04:58.664Z,98586.22
2023-03-26T13:10:25.476Z,98585.28
2023-03-26T13:15:37.694Z,98574.59
2023-03-26T13:21:08.265Z,98573.19
2023-03-26T13:26:45.810Z,98567.44
2023-03-26T13:32:14.536Z,98567.63
2023-03-26T13:37:44.258Z,98564.16
2023-03-26T13:42:53.123Z,98562.50
2023-03-26T13:47:58.377Z,98553.41
2023-03-26T13:53:09.791Z,98548.53
2023-03-26T13:58:36.346Z,98550.78
2023-03-26T14:03:54.837Z,98556.34
2023-03-26T14:09:04.885Z,98555.31
2023-03-26T14:14:28.325Z,98559.72
2023-03-26T14:19:55.284Z,98567.91
2023-03-26T14:25:25.010Z,98574.69
2023-03-26T14:30:54.425Z,98578.25
2023-03-26T14:36:34.433Z,98565.47
2023-03-26T14:41:53.243Z,98557.03
2023-03-26T14:47:17.453Z,98565.19
2023-03-26T14:52:51.523Z,98561.25
2023-03-26T14:58:15.280Z,98566.44
2023-03-26T15:03:26.034Z,98561.75
2023-03-26T15:08:48.568Z,98550.56
2023-03-26T15:14:31.293Z,98547.53
2023-03-26T15:19:36.657Z,98547.25
2023-03-26T15:24:58.406Z,98536.56
2023-03-26T15:30:29.478Z,98539.25
2023-03-26T15:35:33.838Z,98541.25
2023-03-26T15:40:44.761Z,98544.63
2023-03-26T15:46:16.566Z,98548.72
2023-03-26T15:51:47.621Z,98548.38
2023-03-26T15:57:20.564Z,98548.69
2023-03-26T16:02:30.054Z,98547.13
2023-03-26T16:07:50.190Z,98541.50
2023-03-26T16:13:35.676Z,98544.03
2023-03-26T16:19:01.101Z,98549.94
2023-03-26T16:24:02.967Z,98546.66
2023-03-26T16:29:16.791Z,98552.16
2023-03-26T16:34:26.238Z,98547.22
2023-03-26T16:39:39.586Z,98551.13
2023-03-26T16:44:47.494Z,98550.28
2023-03-26T16:50:08.458Z,98548.78
2023-03-26T16:55:20.176Z,98554.72
2023-03-26T17:00:50.290Z,98557.69
2023-03-26T17:05:58.154Z,98556.16
2023-03-26T17:11:21.096Z,98555.97
2023-03-26T17:16:29.641Z,98560.16
2023-03-26T17:22:03.875Z,98566.72
2023-03-26T17:27:09.358Z,98564.16
2023-03-26T17:32:15.114Z,98566.19
2023-03-26T17:37:18.664Z,98566.63
2023-03-26T17:42:38.514Z,98568.06
2023-03-26T17:48:06.185Z,98574.56
2023-03-26T17:53:23.465Z,98576.00
2023-03-26T17:58:35.441Z,98579.41
2023-03-26T18:03:49.547Z,98586.13
2023-03-26T18:09:11.571Z,98584.03
2023-03-26T18:14:32.027Z,98589.75
2023-03-26T18:19:52.840Z,98590.63
2023-03-26T18:24:59.814Z,98594.66
2023-03-26T18:30:13.886Z,98590.38
2023-03-26T18:35:21.481Z,98590.13
2023-03-26T18:40:24.953Z,98582.59
2023-03-26T18:45:33.705Z,98582.66
2023-03-26T18:50:38.809Z,98577.47
2023-03-26T18:55:41.155Z,98584.09
2023-03-26T19:00:44.327Z,98579.91
2023-03-26T19:05:46.735Z,98571.28
2023-03-26T19:10:50.262Z,98565.75
2023-03-26T19:15:54.480Z,98567.03
2023-03-26T19:21:03.008Z,98553.88
2023-03-26T19:26:10.373Z,98557.03
2023-03-26T19:31:15.323Z,98553.50
2023-03-26T19:36:21.262Z,98547.31
2023-03-26T19:41:31.062Z,98546.16
2023-03-26T19:46:34.819Z,98534.59
2023-03-26T19:52:14.877Z,98528.69
2023-03-26T19:57:16.961Z,98522.16
2023-03-26T20:02:19.644Z,98532.88
2023-03-26T20:07:35.907Z,98522.72
2023-03-26T20:12:38.186Z,98508.00
2023-03-26T20:17:42.870Z,98500.97
2023-03-26T20:22:46.920Z,98504.03
2023-03-26T20:27:48.883Z,98490.72
2023-03-26T20:32:51.290Z,98487.75
2023-03-26T20:38:13.236Z,98492.34
2023-03-26T20:43:18.467Z,98490.78
2023-03-26T20:48:20.374Z,98488.09
2023-03-26T20:53:25.622Z,98483.41
2023-03-26T20:58:31.111Z,98481.03
2023-03-26T21:03:33.905Z,98488.63
2023-03-26T21:08:36.057Z,98487.38
2023-03-26T21:13:44.206Z,98477.50
2023-03-26T21:18:46.547Z,98471.78
2023-03-26T21:24:19.244Z,98483.84
2023-03-26T21:29:21.329Z,98473.91
2023-03-26T21:34:23.186Z,98485.25
2023-03-26T21:39:25.324Z,98494.03
2023-03-26T21:44:27.494Z,98509.63
2023-03-26T21:49:29.610Z,98506.09
2023-03-26T21:54:32.662Z,98509.22
2023-03-26T21:59:56.271Z,98525.47
2023-03-26T22:05:08.202Z,98528.97
2023-03-26T22:10:09.995Z,98537.66
2023-03-26T22:15:13.872Z,98528.28
2023-03-26T22:20:15.766Z,98514.75
2023-03-26T22:25:18.503Z,98525.72
2023-03-26T22:30:20.926Z,98533.75
2023-03-26T22:35:22.937Z,98527.31
2023-03-26T22:40:24.773Z,98533.13
2023-03-26T22:45:27.931Z,98534.22
2023-03-26T22:50:29.746Z,98530.16
2023-03-26T22:55:31.435Z,98527.50
2023-03-26T23:00:33.081Z,98535.72
2023-03-26T23:05:34.698Z,98531.34
2023-03-26T23:10:36.806Z,98535.50
2023-03-26T23:15:40.425Z,98542.34
2023-03-26T23:20:42.787Z,98537.56
2023-03-26T23:25:45.579Z,98541.00
2023-03-26T23:30:54.284Z,98544.53
2023-03-26T23:35:57.818Z,98558.06
2023-03-26T23:40:59.674Z,98553.84
2023-03-26T23:46:01.516Z,98559.75
2023-03-26T23:51:04.613Z,98562.50
2023-03-26T23:56:06.708Z,98562.25
